createdAt,value
2019-01-16T00:00:30.822Z,6.76
2019-01-16T00:03:37.170Z,6.73
2019-01-16T00:06:28.431Z,6.71
2019-01-16T00:09:15.285Z,6.77
2019-01-16T00:12:15.418Z,6.74
2019-01-16T00:15:05.131Z,6.80
2019-01-16T00:17:52.180Z,6.78
2019-01-16T00:20:32.108Z,6.76
2019-01-16T00:23:29.832Z,6.79
2019-01-16T00:26:33.217Z,6.87
2019-01-16T00:29:18.371Z,6.82
2019-01-16T00:32:05.863Z,6.83
2019-01-16T00:34:55.425Z,6.80
2019-01-16T00:37:42.735Z,6.87
2019-01-16T00:40:41.410Z,6.80
2019-01-16T00:43:30.992Z,6.80
2019-01-16T00:46:18.885Z,6.84
2019-01-16T00:49:07.248Z,6.87
2019-01-16T00:52:07.928Z,6.92
2019-01-16T00:55:02.098Z,6.93
2019-01-16T00:57:56.148Z,6.91
2019-01-16T01:00:53.384Z,6.89
2019-01-16T01:03:34.992Z,6.87
2019-01-16T01:06:22.161Z,6.84
2019-01-16T01:08:59.238Z,6.83
2019-01-16T01:11:56.393Z,6.79
2019-01-16T01:14:44.515Z,6.80
2019-01-16T01:17:32.621Z,6.82
2019-01-16T01:20:24.071Z,6.83
2019-01-16T01:23:12.221Z,6.91
2019-01-16T01:26:03.451Z,6.82
2019-01-16T01:28:58.391Z,6.76
2019-01-16T01:31:37.674Z,6.75
2019-01-16T01:34:24.187Z,6.78
2019-01-16T01:37:16.759Z,6.72
2019-01-16T01:40:07.941Z,6.73
2019-01-16T01:43:02.256Z,6.77
2019-01-16T01:45:47.603Z,6.72
2019-01-16T01:48:40.157Z,6.75
2019-01-16T01:51:27.192Z,6.76
2019-01-16T01:54:15.349Z,6.76
2019-01-16T01:57:15.580Z,6.71
2019-01-16T02:00:07.025Z,6.70
2019-01-16T02:02:55.189Z,6.72
2019-01-16T02:05:42.316Z,6.77
2019-01-16T02:08:21.491Z,6.75
2019-01-16T02:11:02.708Z,6.73
2019-01-16T02:13:52.659Z,6.82
2019-01-16T02:16:40.763Z,6.77
2019-01-16T02:19:29.075Z,6.78
2019-01-16T02:22:31.514Z,6.81
2019-01-16T02:25:31.967Z,6.83
2019-01-16T02:28:24.406Z,6.83
2019-01-16T02:31:10.956Z,6.84
2019-01-16T02:33:58.328Z,6.77
2019-01-16T02:36:40.447Z,6.76
2019-01-16T02:39:27.924Z,6.79
2019-01-16T02:42:19.958Z,6.81
2019-01-16T02:45:11.249Z,6.80
2019-01-16T02:47:58.508Z,6.76
2019-01-16T02:50:45.198Z,6.77
2019-01-16T02:53:36.874Z,6.83
2019-01-16T02:56:28.491Z,6.82
2019-01-16T02:59:15.413Z,6.83
2019-01-16T03:02:15.768Z,6.89
2019-01-16T03:05:04.563Z,6.91
2019-01-16T03:08:01.920Z,6.81
2019-01-16T03:10:59.407Z,6.79
2019-01-16T03:14:05.818Z,6.82
2019-01-16T03:16:53.893Z,6.85
2019-01-16T03:19:42.169Z,6.90
2019-01-16T03:22:33.897Z,6.90
2019-01-16T03:25:24.785Z,6.84
2019-01-16T03:28:29.001Z,6.89
2019-01-16T03:31:15.811Z,6.90
2019-01-16T03:34:07.527Z,6.91
2019-01-16T03:36:54.698Z,6.91
2019-01-16T03:39:42.839Z,6.94
2019-01-16T03:42:26.981Z,6.96
2019-01-16T03:45:11.749Z,6.99
2019-01-16T03:48:03.130Z,7.00
2019-01-16T03:50:51.721Z,7.04
2019-01-16T03:53:40.240Z,6.98
2019-01-16T03:56:27.236Z,7.03
2019-01-16T03:59:18.367Z,7.10
2019-01-16T04:02:06.501Z,7.12
2019-01-16T04:04:53.231Z,7.07
2019-01-16T04:07:50.399Z,7.06
2019-01-16T04:10:44.334Z,7.04
2019-01-16T04:13:45.633Z,7.06
2019-01-16T04:16:48.864Z,7.06
2019-01-16T04:19:55.673Z,7.10
2019-01-16T04:22:35.639Z,7.13
2019-01-16T04:25:25.244Z,7.09
2019-01-16T04:28:12.480Z,7.05
2019-01-16T04:30:59.232Z,7.07
2019-01-16T04:33:46.673Z,7.10
2019-01-16T04:36:36.419Z,7.12
2019-01-16T04:39:32.807Z,7.13
2019-01-16T04:42:19.821Z,7.06
2019-01-16T04:45:11.339Z,7.08
2019-01-16T04:48:15.152Z,7.10
2019-01-16T04:50:58.097Z,7.09
2019-01-16T04:53:44.434Z,7.02
2019-01-16T04:56:48.279Z,7.00
2019-01-16T04:59:39.439Z,7.00
2019-01-16T05:02:27.537Z,6.96
2019-01-16T05:05:15.252Z,6.99
2019-01-16T05:08:03.347Z,6.97
2019-01-16T05:10:44.036Z,7.03
2019-01-16T05:13:31.281Z,7.04
2019-01-16T05:16:25.727Z,7.06
2019-01-16T05:19:11.222Z,7.06
2019-01-16T05:22:05.167Z,7.07
2019-01-16T05:25:02.932Z,7.04
2019-01-16T05:27:50.232Z,7.11
2019-01-16T05:30:42.061Z,7.07
2019-01-16T05:33:27.739Z,7.08
2019-01-16T05:36:24.735Z,7.10
2019-01-16T05:39:10.854Z,7.04
2019-01-16T05:41:56.341Z,7.09
2019-01-16T05:44:47.600Z,7.10
2019-01-16T05:47:30.187Z,7.10
2019-01-16T05:50:30.632Z,7.05
2019-01-16T05:53:21.799Z,7.05
2019-01-16T05:56:23.906Z,7.05
2019-01-16T05:59:15.044Z,7.11
2019-01-16T06:02:01.862Z,7.08
2019-01-16T06:05:02.364Z,7.01
2019-01-16T06:07:57.359Z,7.00
2019-01-16T06:10:40.756Z,6.99
2019-01-16T06:13:29.479Z,6.95
2019-01-16T06:16:17.582Z,6.99
2019-01-16T06:19:04.631Z,6.93
2019-01-16T06:21:51.206Z,6.92
2019-01-16T06:24:42.396Z,6.90
2019-01-16T06:27:29.579Z,6.89
2019-01-16T06:30:30.328Z,6.82
2019-01-16T06:33:14.236Z,6.84
2019-01-16T06:36:02.374Z,6.80
2019-01-16T06:38:49.266Z,6.84
2019-01-16T06:41:27.925Z,6.83
2019-01-16T06:44:15.260Z,6.80
2019-01-16T06:47:12.834Z,6.82
2019-01-16T06:49:53.868Z,6.90
2019-01-16T06:52:28.264Z,6.87
2019-01-16T06:55:04.170Z,6.88
2019-01-16T06:58:01.585Z,6.85
2019-01-16T07:00:48.898Z,6.86
2019-01-16T07:03:35.980Z,6.91
2019-01-16T07:06:27.581Z,6.92
2019-01-16T07:09:14.271Z,6.91
2019-01-16T07:12:02.942Z,6.91
2019-01-16T07:14:48.624Z,6.86
2019-01-16T07:17:54.898Z,6.86
2019-01-16T07:20:37.238Z,6.91
2019-01-16T07:23:19.919Z,6.93
2019-01-16T07:26:08.802Z,6.87
2019-01-16T07:29:06.044Z,6.87
2019-01-16T07:31:54.426Z,6.84
2019-01-16T07:34:41.211Z,6.70
2019-01-16T07:37:39.018Z,6.70
2019-01-16T07:40:43.643Z,6.58
2019-01-16T07:43:31.739Z,6.53
2019-01-16T07:46:26.507Z,6.50
2019-01-16T07:49:13.947Z,6.46
2019-01-16T07:52:00.683Z,6.45
2019-01-16T07:55:12.901Z,6.44
2019-01-16T07:57:55.489Z,6.41
2019-01-16T08:00:42.410Z,6.51
2019-01-16T08:03:46.074Z,6.47
2019-01-16T08:06:37.478Z,6.45
2019-01-16T08:09:30.708Z,6.51
2019-01-16T08:12:22.485Z,6.49
2019-01-16T08:15:16.428Z,6.51
2019-01-16T08:18:10.395Z,6.50
2019-01-16T08:20:57.484Z,6.50
2019-01-16T08:23:54.816Z,6.54
2019-01-16T08:26:45.953Z,6.50
2019-01-16T08:29:37.238Z,6.48
2019-01-16T08:32:28.761Z,6.49
2019-01-16T08:35:23.856Z,6.48
2019-01-16T08:38:28.879Z,6.44
2019-01-16T08:41:26.261Z,6.43
2019-01-16T08:44:14.434Z,6.50
2019-01-16T08:46:53.236Z,6.40
2019-01-16T08:49:46.802Z,6.45
2019-01-16T08:52:29.053Z,6.43
2019-01-16T08:55:32.945Z,6.42
2019-01-16T08:58:21.066Z,6.41
2019-01-16T09:01:09.201Z,6.44
2019-01-16T09:04:09.690Z,6.43
2019-01-16T09:06:56.528Z,6.43
2019-01-16T09:09:39.707Z,6.48
2019-01-16T09:12:26.461Z,6.45
2019-01-16T09:15:26.723Z,6.43
2019-01-16T09:18:13.593Z,6.42
2019-01-16T09:21:04.478Z,6.42
2019-01-16T09:24:04.821Z,6.36
2019-01-16T09:26:53.668Z,6.35
2019-01-16T09:29:34.676Z,6.36
2019-01-16T09:32:25.988Z,6.32
2019-01-16T09:35:06.150Z,6.35
2019-01-16T09:37:50.094Z,6.34
2019-01-16T09:40:33.951Z,6.26
2019-01-16T09:43:31.567Z,6.24
2019-01-16T09:46:18.872Z,6.28
2019-01-16T09:49:22.456Z,6.17
2019-01-16T09:52:11.457Z,6.17
2019-01-16T09:54:58.608Z,6.21
2019-01-16T09:57:44.847Z,6.18
2019-01-16T10:00:50.192Z,6.15
2019-01-16T10:03:45.813Z,6.19
2019-01-16T10:06:36.720Z,6.17
2019-01-16T10:09:23.706Z,6.20
2019-01-16T10:12:17.975Z,6.20
2019-01-16T10:15:18.571Z,6.17
2019-01-16T10:18:05.307Z,6.09
2019-01-16T10:21:08.873Z,5.99
2019-01-16T10:23:57.251Z,6.03
2019-01-16T10:26:44.749Z,5.97
2019-01-16T10:29:46.153Z,5.90
2019-01-16T10:32:37.359Z,5.96
2019-01-16T10:35:25.942Z,6.06
2019-01-16T10:38:20.402Z,6.04
2019-01-16T10:41:03.324Z,6.09
2019-01-16T10:44:00.441Z,6.19
2019-01-16T10:46:47.237Z,6.23
2019-01-16T10:49:34.093Z,6.31
2019-01-16T10:52:34.180Z,6.26
2019-01-16T10:55:25.461Z,6.22
2019-01-16T10:58:13.580Z,6.16
2019-01-16T11:01:04.487Z,6.14
2019-01-16T11:03:45.412Z,6.16
2019-01-16T11:06:33.625Z,6.15
2019-01-16T11:09:20.701Z,6.24
2019-01-16T11:12:12.038Z,6.17
2019-01-16T11:15:03.199Z,6.17
2019-01-16T11:17:50.358Z,6.18
2019-01-16T11:20:42.753Z,6.24
2019-01-16T11:23:29.594Z,6.23
2019-01-16T11:26:26.090Z,6.23
2019-01-16T11:29:20.551Z,6.22
2019-01-16T11:32:08.156Z,6.25
2019-01-16T11:34:55.037Z,6.26
2019-01-16T11:37:41.912Z,6.25
2019-01-16T11:40:29.773Z,6.23
2019-01-16T11:43:16.659Z,6.27
2019-01-16T11:46:04.716Z,6.28
2019-01-16T11:48:55.087Z,6.41
2019-01-16T11:51:48.474Z,6.53
2019-01-16T11:54:35.240Z,6.66
2019-01-16T11:57:26.303Z,6.66
2019-01-16T12:00:07.290Z,6.60
2019-01-16T12:02:54.307Z,6.53
2019-01-16T12:05:47.785Z,6.47
2019-01-16T12:08:46.114Z,6.47
2019-01-16T12:11:40.493Z,6.47
2019-01-16T12:14:32.255Z,6.50
2019-01-16T12:17:19.066Z,6.56
2019-01-16T12:20:10.435Z,6.59
2019-01-16T12:22:52.065Z,6.54
2019-01-16T12:25:49.240Z,6.52
2019-01-16T12:28:33.203Z,6.55
2019-01-16T12:31:14.734Z,6.63
2019-01-16T12:34:03.548Z,6.63
2019-01-16T12:36:51.706Z,6.60
2019-01-16T12:39:52.072Z,6.62
2019-01-16T12:42:45.198Z,6.56
2019-01-16T12:45:36.319Z,6.52
2019-01-16T12:48:30.768Z,6.43
2019-01-16T12:51:33.696Z,6.44
2019-01-16T12:54:24.302Z,6.47
2019-01-16T12:57:04.778Z,6.44
2019-01-16T12:59:58.981Z,6.45
2019-01-16T13:02:56.396Z,6.48
2019-01-16T13:05:45.383Z,6.41
2019-01-16T13:08:28.421Z,6.47
2019-01-16T13:11:15.147Z,6.45
2019-01-16T13:13:55.419Z,6.42
2019-01-16T13:16:46.368Z,6.36
2019-01-16T13:19:24.455Z,6.31
2019-01-16T13:22:02.987Z,6.35
2019-01-16T13:24:52.027Z,6.24
2019-01-16T13:27:49.664Z,6.22
2019-01-16T13:30:44.252Z,6.28
2019-01-16T13:33:31.021Z,6.26
2019-01-16T13:36:25.377Z,6.20
2019-01-16T13:39:16.612Z,6.20
2019-01-16T13:42:04.722Z,6.19
2019-01-16T13:44:52.832Z,6.17
2019-01-16T13:47:51.990Z,6.20
2019-01-16T13:50:44.217Z,6.21
2019-01-16T13:53:31.891Z,6.17
2019-01-16T13:56:16.174Z,6.23
2019-01-16T13:59:10.327Z,6.21
2019-01-16T14:01:58.435Z,6.16
2019-01-16T14:04:45.196Z,6.14
2019-01-16T14:07:32.402Z,6.20
2019-01-16T14:10:23.557Z,6.22
2019-01-16T14:13:10.727Z,6.27
2019-01-16T14:15:56.163Z,6.22
2019-01-16T14:18:44.640Z,6.40
2019-01-16T14:21:52.799Z,6.36
2019-01-16T14:24:35.297Z,6.26
2019-01-16T14:27:22.386Z,6.25
2019-01-16T14:30:09.224Z,6.26
2019-01-16T14:32:56.483Z,6.25
2019-01-16T14:35:47.800Z,6.20
2019-01-16T14:38:34.845Z,6.21
2019-01-16T14:41:35.275Z,6.16
2019-01-16T14:44:33.649Z,6.19
2019-01-16T14:47:21.829Z,6.16
2019-01-16T14:50:01.187Z,6.12
2019-01-16T14:52:44.376Z,6.08
2019-01-16T14:55:41.391Z,6.03
2019-01-16T14:58:32.347Z,6.08
2019-01-16T15:01:28.034Z,6.02
2019-01-16T15:04:31.470Z,6.13
2019-01-16T15:07:16.292Z,5.98
2019-01-16T15:10:21.045Z,6.01
2019-01-16T15:13:21.619Z,6.01
2019-01-16T15:16:07.534Z,5.90
2019-01-16T15:18:59.035Z,5.78
2019-01-16T15:21:47.171Z,5.67
2019-01-16T15:24:35.283Z,5.64
2019-01-16T15:27:22.472Z,5.59
2019-01-16T15:30:14.029Z,5.61
2019-01-16T15:33:05.351Z,5.60
2019-01-16T15:36:11.853Z,5.57
2019-01-16T15:39:15.154Z,5.50
2019-01-16T15:42:03.742Z,5.53
2019-01-16T15:44:50.994Z,5.54
2019-01-16T15:47:41.091Z,5.46
2019-01-16T15:50:28.471Z,5.45
2019-01-16T15:53:11.943Z,5.34
2019-01-16T15:55:59.339Z,5.39
2019-01-16T15:58:47.438Z,5.41
2019-01-16T16:01:30.846Z,5.29
2019-01-16T16:04:16.907Z,5.28
2019-01-16T16:07:24.091Z,5.27
2019-01-16T16:10:03.390Z,5.25
2019-01-16T16:12:47.787Z,5.22
2019-01-16T16:15:35.992Z,5.22
2019-01-16T16:18:19.030Z,5.20
2019-01-16T16:21:11.347Z,5.20
2019-01-16T16:23:55.443Z,5.25
2019-01-16T16:26:42.502Z,5.18
2019-01-16T16:29:37.341Z,5.20
2019-01-16T16:32:24.147Z,5.21
2019-01-16T16:35:11.175Z,5.17
2019-01-16T16:38:14.341Z,5.20
2019-01-16T16:41:02.534Z,5.19
2019-01-16T16:44:00.568Z,5.23
2019-01-16T16:46:51.794Z,5.21
2019-01-16T16:49:30.273Z,5.32
2019-01-16T16:52:16.951Z,5.26
2019-01-16T16:55:09.541Z,5.22
2019-01-16T16:57:49.633Z,5.20
2019-01-16T17:00:35.169Z,5.21
2019-01-16T17:03:22.213Z,5.19
2019-01-16T17:06:09.240Z,5.29
2019-01-16T17:08:58.452Z,5.28
2019-01-16T17:11:46.786Z,5.28
2019-01-16T17:14:35.107Z,5.28
2019-01-16T17:17:26.083Z,5.35
2019-01-16T17:20:10.730Z,5.32
2019-01-16T17:23:04.634Z,5.24
2019-01-16T17:25:56.004Z,5.27
2019-01-16T17:28:39.243Z,5.27
2019-01-16T17:31:32.780Z,5.26
2019-01-16T17:34:19.896Z,5.25
2019-01-16T17:37:08.034Z,5.26
2019-01-16T17:39:56.115Z,5.24
2019-01-16T17:42:47.536Z,5.26
2019-01-16T17:45:41.724Z,5.34
2019-01-16T17:48:29.821Z,5.33
2019-01-16T17:51:18.457Z,5.33
2019-01-16T17:54:05.363Z,5.29
2019-01-16T17:57:05.910Z,5.29
2019-01-16T17:59:54.090Z,5.29
2019-01-16T18:02:48.624Z,5.24
2019-01-16T18:05:33.889Z,5.31
2019-01-16T18:08:15.404Z,5.32
2019-01-16T18:10:55.306Z,5.23
2019-01-16T18:13:42.478Z,5.20
2019-01-16T18:16:30.647Z,5.22
2019-01-16T18:19:37.116Z,5.22
2019-01-16T18:22:45.105Z,5.28
2019-01-16T18:25:25.567Z,5.27
2019-01-16T18:28:29.223Z,5.30
2019-01-16T18:31:20.749Z,5.36
2019-01-16T18:34:27.280Z,5.33
2019-01-16T18:37:21.407Z,5.30
2019-01-16T18:39:59.901Z,5.31
2019-01-16T18:43:00.373Z,5.31
2019-01-16T18:46:03.645Z,5.29
2019-01-16T18:48:55.315Z,5.29
2019-01-16T18:51:42.370Z,5.27
2019-01-16T18:54:28.444Z,5.26
2019-01-16T18:57:22.644Z,5.24
2019-01-16T19:00:10.738Z,5.23
2019-01-16T19:02:58.419Z,5.23
2019-01-16T19:05:36.434Z,5.22
2019-01-16T19:08:23.346Z,5.27
2019-01-16T19:11:10.167Z,5.25
2019-01-16T19:14:13.412Z,5.27
2019-01-16T19:17:02.166Z,5.30
2019-01-16T19:19:53.870Z,5.33
2019-01-16T19:22:45.355Z,5.25
2019-01-16T19:25:33.465Z,5.33
2019-01-16T19:28:20.469Z,5.24
2019-01-16T19:31:08.086Z,5.25
2019-01-16T19:33:59.362Z,5.25
2019-01-16T19:36:40.513Z,5.26
2019-01-16T19:39:38.162Z,5.21
2019-01-16T19:42:29.459Z,5.19
2019-01-16T19:45:16.582Z,5.09
2019-01-16T19:48:17.214Z,5.08
2019-01-16T19:51:04.105Z,5.06
2019-01-16T19:54:01.188Z,5.10
2019-01-16T19:56:48.384Z,5.08
2019-01-16T19:59:33.131Z,5.10
2019-01-16T20:02:24.296Z,5.08
2019-01-16T20:05:11.399Z,5.15
2019-01-16T20:07:53.436Z,5.07
2019-01-16T20:10:40.162Z,5.06
2019-01-16T20:13:28.374Z,5.07
2019-01-16T20:16:25.771Z,5.11
2019-01-16T20:19:04.758Z,5.09
2019-01-16T20:22:02.103Z,5.17
2019-01-16T20:24:56.806Z,5.18
2019-01-16T20:27:44.432Z,5.12
2019-01-16T20:30:32.266Z,5.10
2019-01-16T20:33:19.662Z,5.10
2019-01-16T20:36:19.896Z,5.06
2019-01-16T20:39:20.340Z,5.10
2019-01-16T20:42:09.524Z,5.06
2019-01-16T20:44:56.400Z,5.01
2019-01-16T20:47:53.681Z,5.04
2019-01-16T20:50:54.172Z,5.03
2019-01-16T20:53:40.502Z,5.04
2019-01-16T20:56:25.061Z,5.01
2019-01-16T20:59:32.408Z,5.11
2019-01-16T21:02:19.329Z,5.18
2019-01-16T21:05:09.995Z,5.36
2019-01-16T21:07:58.199Z,5.26
2019-01-16T21:10:47.006Z,5.19
2019-01-16T21:13:38.678Z,5.11
2019-01-16T21:16:36.518Z,5.11
2019-01-16T21:19:23.986Z,5.02
2019-01-16T21:22:11.257Z,5.05
2019-01-16T21:25:01.674Z,5.02
2019-01-16T21:27:47.373Z,4.98
2019-01-16T21:30:33.755Z,4.99
2019-01-16T21:33:31.136Z,5.04
2019-01-16T21:36:22.459Z,5.03
2019-01-16T21:39:13.661Z,5.00
2019-01-16T21:42:07.832Z,5.02
2019-01-16T21:44:54.042Z,5.06
2019-01-16T21:47:47.356Z,5.11
2019-01-16T21:50:36.819Z,5.06
2019-01-16T21:53:30.197Z,5.09
2019-01-16T21:56:33.364Z,5.09
2019-01-16T21:59:20.332Z,5.12
2019-01-16T22:02:08.425Z,5.11
2019-01-16T22:04:56.551Z,5.12
2019-01-16T22:07:47.785Z,5.01
2019-01-16T22:10:48.014Z,4.94
2019-01-16T22:13:36.141Z,4.88
2019-01-16T22:16:23.277Z,4.81
2019-01-16T22:19:20.774Z,4.82
2019-01-16T22:22:27.494Z,4.77
2019-01-16T22:25:08.488Z,4.73
2019-01-16T22:28:05.788Z,4.72
2019-01-16T22:31:02.898Z,4.74
2019-01-16T22:33:45.133Z,4.75
2019-01-16T22:36:24.838Z,4.80
2019-01-16T22:39:13.342Z,4.78
2019-01-16T22:42:00.051Z,4.84
2019-01-16T22:45:06.372Z,4.80
2019-01-16T22:48:00.556Z,4.85
2019-01-16T22:51:00.448Z,4.85
2019-01-16T22:53:47.448Z,4.87
2019-01-16T22:56:50.035Z,4.83
2019-01-16T22:59:48.028Z,4.82
2019-01-16T23:02:33.488Z,4.90
2019-01-16T23:05:18.898Z,4.91
2019-01-16T23:07:58.579Z,4.91
2019-01-16T23:10:42.334Z,4.83
2019-01-16T23:13:46.306Z,4.88
2019-01-16T23:16:34.411Z,4.88
2019-01-16T23:19:27.631Z,4.89
2019-01-16T23:22:21.833Z,4.92
2019-01-16T23:25:13.375Z,4.91
2019-01-16T23:28:01.755Z,4.90
2019-01-16T23:30:49.057Z,4.88
2019-01-16T23:33:35.839Z,4.91
2019-01-16T23:36:15.715Z,4.96
2019-01-16T23:39:16.311Z,4.96
2019-01-16T23:41:56.242Z,4.95
2019-01-16T23:44:44.401Z,4.92
2019-01-16T23:47:30.169Z,4.99
2019-01-16T23:50:17.107Z,4.75
2019-01-16T23:53:14.236Z,4.64
2019-01-16T23:56:10.996Z,4.50
2019-01-16T23:58:59.389Z,4.42
